Portada
METAR-TAF:

METAR-TAF

Aeroports :

Oral, Kazakhstan

latitud: 51-15N, longitud: 051-17E, altitud: 36 m

Observació

L'informe es va fer fa 16 minuts, a les 12:30 UTC
Vent 6 kt del Oest/Sud-Oest, variant entre Sud i Oest
Temperatura 31°C
Humitat 24%
Pressió 1011 hPa
Visibilitat 10 km o més
sense núvols per sota de 1500 mi sense presència de cumulonimbus.

METAR: UARR 291230Z 24003MPS 170V270 CAVOK 31/08 Q1011 R22/CLRD70 NOSIG RMK QFE755/1006

Hora: 17:46 (12:46 UTC)

Pronòstic

L'informe es va fer fa 1 hora i 46 minuts, a les 11:00 UTC
Pronòstic vàlid del 29 a les 12 UTC al 29 a les 21 UTC
Vent 10 kt del Oest
Visibilitat 10 km o més
Núvols disperses a una alçada de 5000 ft, Cumulonimbus.
Temporalment
l' 29 a les 15 UTC al 29 a les 18 UTC
Vent 10 kt del Sud-Oest
Evolucionant progressivament
l' 29 a les 18 UTC al 29 a les 19 UTC
Vent 10 kt del Sud

TAF: UARR 291100Z 2912/2921 28005MPS 9999 SCT050CB TEMPO 2915/2918 23005MPS BECMG 2918/2919 18005MPS

Observacions i pronòstics meteorològics de més de 4000 aeroports (METAR i TAF).

Les estacions disponibles són els punts grocs i vermells al mapa.

Posi el ratolí al punt desitjat per veure el nom de l'estació.

Feu clic per veure les observacions i els pronòstics meteorològics.

Per canviar el mapa: feu clic els botons verds amb una creu de color negre per apropar; al botó verd amb un guió per allunyar la imatge; o en les fletxes verdes per a mapes adjacents.


METAR-TAF: